createdAt,value
2019-05-15T00:02:14.507Z,65.40
2019-05-15T00:04:44.569Z,65.10
2019-05-15T00:07:14.701Z,64.60
2019-05-15T00:09:44.754Z,65.10
2019-05-15T00:12:14.880Z,65.10
2019-05-15T00:14:44.862Z,65.40
2019-05-15T00:17:15.231Z,65.20
2019-05-15T00:19:45.266Z,65.30
2019-05-15T00:22:15.324Z,65.10
2019-05-15T00:24:45.729Z,65.80
2019-05-15T00:27:16.021Z,65.20
2019-05-15T00:29:46.033Z,65.60
2019-05-15T00:32:18.486Z,65.50
2019-05-15T00:34:48.836Z,65.40
2019-05-15T00:37:18.937Z,65.30
2019-05-15T00:39:49.358Z,65.20
2019-05-15T00:42:19.760Z,65.60
2019-05-15T00:44:49.827Z,65.20
2019-05-15T00:47:19.843Z,65.20
2019-05-15T00:49:49.887Z,63.20
2019-05-15T00:52:19.911Z,64.90
2019-05-15T00:54:50.006Z,64.80
2019-05-15T00:57:20.067Z,66.30
2019-05-15T00:59:51.670Z,65.80
2019-05-15T01:02:21.713Z,66.40
2019-05-15T01:04:51.757Z,66.50
2019-05-15T01:07:21.773Z,65.80
2019-05-15T01:09:51.830Z,66.00
2019-05-15T01:12:21.999Z,64.90
2019-05-15T01:14:52.031Z,65.40
2019-05-15T01:17:22.146Z,66.00
2019-05-15T01:19:52.192Z,65.90
2019-05-15T01:22:22.297Z,65.60
2019-05-15T01:24:52.332Z,65.80
2019-05-15T01:27:22.531Z,67.50
2019-05-15T01:29:52.635Z,64.80
2019-05-15T01:32:22.724Z,66.00
2019-05-15T01:34:53.167Z,65.90
2019-05-15T01:37:23.249Z,66.20
2019-05-15T01:39:53.269Z,67.30
2019-05-15T01:42:23.395Z,66.50
2019-05-15T01:44:53.422Z,67.10
2019-05-15T01:47:23.540Z,66.80
2019-05-15T01:49:53.574Z,67.60
2019-05-15T01:52:23.686Z,67.50
2019-05-15T01:54:53.733Z,68.00
2019-05-15T01:57:24.081Z,66.50
2019-05-15T01:59:57.543Z,66.90
2019-05-15T02:02:27.912Z,64.20
2019-05-15T02:04:59.204Z,64.60
2019-05-15T02:07:30.874Z,64.40
2019-05-15T02:10:00.966Z,67.10
2019-05-15T02:12:31.012Z,66.70
2019-05-15T02:15:01.129Z,67.30
2019-05-15T02:17:31.229Z,67.20
2019-05-15T02:20:01.263Z,63.50
2019-05-15T02:22:31.370Z,66.00
2019-05-15T02:25:01.489Z,67.90
2019-05-15T02:27:31.517Z,67.40
2019-05-15T02:30:16.741Z,67.90
2019-05-15T02:32:33.224Z,68.50
2019-05-15T02:35:05.047Z,68.50
2019-05-15T02:37:35.089Z,68.80
2019-05-15T02:40:05.899Z,68.50
2019-05-15T02:42:39.516Z,68.30
2019-05-15T02:45:10.013Z,68.20
2019-05-15T02:47:41.928Z,68.50
2019-05-15T02:50:12.195Z,66.20
2019-05-15T02:52:45.142Z,68.20
2019-05-15T02:55:14.301Z,68.90
2019-05-15T02:57:44.349Z,68.60
2019-05-15T03:00:35.305Z,66.30
2019-05-15T03:02:46.295Z,64.70
2019-05-15T03:05:19.370Z,67.50
2019-05-15T03:07:49.330Z,68.50
2019-05-15T03:10:20.061Z,69.10
2019-05-15T03:12:50.451Z,69.10
2019-05-15T03:15:20.552Z,67.60
2019-05-15T03:17:50.722Z,68.30
2019-05-15T03:20:20.824Z,69.70
2019-05-15T03:22:50.860Z,69.40
2019-05-15T03:25:21.047Z,69.50
2019-05-15T03:27:51.161Z,70.80
2019-05-15T03:30:22.439Z,69.90
2019-05-15T03:33:00.776Z,70.00
2019-05-15T03:35:24.438Z,70.00
2019-05-15T03:37:54.468Z,69.60
2019-05-15T03:40:24.491Z,69.20
2019-05-15T03:42:54.539Z,69.60
2019-05-15T03:45:24.695Z,69.70
2019-05-15T03:47:55.107Z,69.90
2019-05-15T03:50:25.177Z,69.70
2019-05-15T03:52:55.264Z,68.60
2019-05-15T03:55:25.371Z,68.20
2019-05-15T03:57:58.890Z,68.70
2019-05-15T04:00:30.126Z,68.20
2019-05-15T04:03:00.255Z,68.80
2019-05-15T04:05:30.425Z,69.60
2019-05-15T04:08:00.465Z,70.30
2019-05-15T04:10:30.566Z,69.80
2019-05-15T04:13:00.685Z,69.30
2019-05-15T04:15:30.828Z,70.30
2019-05-15T04:18:00.861Z,70.70
2019-05-15T04:20:30.976Z,70.80
2019-05-15T04:23:01.076Z,70.80
2019-05-15T04:25:32.249Z,70.30
2019-05-15T04:28:03.412Z,70.00
2019-05-15T04:30:33.529Z,70.10
2019-05-15T04:33:03.539Z,69.70
2019-05-15T04:35:33.575Z,69.30
2019-05-15T04:38:09.056Z,70.50
2019-05-15T04:40:39.631Z,70.50
2019-05-15T04:43:10.766Z,70.90
2019-05-15T04:45:41.171Z,70.90
2019-05-15T04:48:11.595Z,71.00
2019-05-15T04:50:42.683Z,71.30
2019-05-15T04:53:12.774Z,71.00
2019-05-15T04:55:43.131Z,71.20
2019-05-15T04:58:13.216Z,70.80
2019-05-15T05:00:52.977Z,71.00
2019-05-15T05:03:23.973Z,71.70
2019-05-15T05:05:54.096Z,70.30
2019-05-15T05:08:25.439Z,71.10
2019-05-15T05:10:58.846Z,71.40
2019-05-15T05:13:28.751Z,71.00
2019-05-15T05:15:59.137Z,70.60
2019-05-15T05:18:29.901Z,70.80
2019-05-15T05:21:00.228Z,71.00
2019-05-15T05:23:30.285Z,70.20
2019-05-15T05:26:00.297Z,70.20
2019-05-15T05:28:30.432Z,69.30
2019-05-15T05:31:00.913Z,66.50
2019-05-15T05:33:31.145Z,66.20
2019-05-15T05:36:01.259Z,65.90
2019-05-15T05:38:31.306Z,64.50
2019-05-15T05:41:01.323Z,65.00
2019-05-15T05:43:31.511Z,67.50
2019-05-15T05:46:01.616Z,67.90
2019-05-15T05:48:32.083Z,68.60
2019-05-15T05:51:02.186Z,69.40
2019-05-15T05:53:32.238Z,69.20
2019-05-15T05:56:02.282Z,70.00
2019-05-15T05:58:32.674Z,70.20
2019-05-15T06:01:03.107Z,70.50
2019-05-15T06:03:33.151Z,71.70
2019-05-15T06:06:03.223Z,71.40
2019-05-15T06:08:33.221Z,71.50
2019-05-15T06:11:03.326Z,71.20
2019-05-15T06:13:34.202Z,70.40
2019-05-15T06:16:04.382Z,69.00
2019-05-15T06:18:34.418Z,70.10
2019-05-15T06:21:04.596Z,71.00
2019-05-15T06:23:36.024Z,71.20
2019-05-15T06:26:09.106Z,71.20
2019-05-15T06:28:39.412Z,71.20
2019-05-15T06:31:09.869Z,71.60
2019-05-15T06:33:39.967Z,71.10
2019-05-15T06:36:10.012Z,70.90
2019-05-15T06:38:41.441Z,70.60
2019-05-15T06:41:11.500Z,69.40
2019-05-15T06:43:41.613Z,64.70
2019-05-15T06:46:13.170Z,60.00
2019-05-15T06:48:43.569Z,61.40
2019-05-15T06:51:13.663Z,61.40
2019-05-15T06:53:43.712Z,60.10
2019-05-15T06:56:13.734Z,58.40
2019-05-15T06:58:43.851Z,58.60
2019-05-15T07:01:13.887Z,59.60
2019-05-15T07:03:44.268Z,61.10
2019-05-15T07:06:14.356Z,62.00
2019-05-15T07:08:44.385Z,58.60
2019-05-15T07:11:14.414Z,58.60
2019-05-15T07:13:44.515Z,59.60
2019-05-15T07:16:14.669Z,59.80
2019-05-15T07:18:44.699Z,58.80
2019-05-15T07:21:18.242Z,58.70
2019-05-15T07:23:49.345Z,60.20
2019-05-15T07:26:18.429Z,61.20
2019-05-15T07:28:48.735Z,61.80
2019-05-15T07:31:18.846Z,62.80
2019-05-15T07:33:49.302Z,63.40
2019-05-15T07:36:19.562Z,62.80
2019-05-15T07:38:49.631Z,62.40
2019-05-15T07:41:19.673Z,64.60
2019-05-15T07:43:49.827Z,65.20
2019-05-15T07:46:20.208Z,66.00
2019-05-15T07:48:50.238Z,66.90
2019-05-15T07:51:20.617Z,66.70
2019-05-15T07:53:50.666Z,68.80
2019-05-15T07:56:21.709Z,68.50
2019-05-15T07:58:52.968Z,68.50
2019-05-15T08:01:23.094Z,67.90
2019-05-15T08:04:01.667Z,67.50
2019-05-15T08:06:24.913Z,67.30
2019-05-15T08:08:56.043Z,66.20
2019-05-15T08:11:28.538Z,66.70
2019-05-15T08:13:58.332Z,67.90
2019-05-15T08:16:28.832Z,67.50
2019-05-15T08:18:58.994Z,68.30
2019-05-15T08:21:29.327Z,69.20
2019-05-15T08:23:59.477Z,69.00
2019-05-15T08:26:29.565Z,67.10
2019-05-15T08:29:01.044Z,68.10
2019-05-15T08:31:31.188Z,66.10
2019-05-15T08:34:12.609Z,67.90
2019-05-15T08:36:33.241Z,66.00
2019-05-15T08:39:05.280Z,68.30
2019-05-15T08:41:35.309Z,67.80
2019-05-15T08:44:05.570Z,68.30
2019-05-15T08:46:35.591Z,68.70
2019-05-15T08:49:05.777Z,67.80
2019-05-15T08:51:38.051Z,69.30
2019-05-15T08:54:08.528Z,68.50
2019-05-15T08:56:39.322Z,69.90
2019-05-15T08:59:10.606Z,67.40
2019-05-15T09:01:41.112Z,66.90
2019-05-15T09:04:26.744Z,66.50
2019-05-15T09:06:44.015Z,66.20
2019-05-15T09:09:14.041Z,65.90
2019-05-15T09:11:44.085Z,67.00
2019-05-15T09:14:14.256Z,69.60
2019-05-15T09:16:44.311Z,67.90
2019-05-15T09:19:14.325Z,69.00
2019-05-15T09:21:44.389Z,67.90
2019-05-15T09:24:14.487Z,68.20
2019-05-15T09:26:44.585Z,68.00
2019-05-15T09:29:14.981Z,67.10
2019-05-15T09:31:45.039Z,67.20
2019-05-15T09:34:15.083Z,66.10
2019-05-15T09:36:48.434Z,67.50
2019-05-15T09:39:18.429Z,67.90
2019-05-15T09:41:48.934Z,68.00
2019-05-15T09:44:21.647Z,69.10
2019-05-15T09:46:50.726Z,69.50
2019-05-15T09:49:20.836Z,68.70
2019-05-15T09:51:50.879Z,70.20
2019-05-15T09:54:20.982Z,67.40
2019-05-15T09:56:51.010Z,70.40
2019-05-15T09:59:21.270Z,68.80
2019-05-15T10:01:51.302Z,68.60
2019-05-15T10:04:21.791Z,68.10
2019-05-15T10:06:51.869Z,68.70
2019-05-15T10:09:21.918Z,69.30
2019-05-15T10:11:51.953Z,68.00
2019-05-15T10:14:22.270Z,68.70
2019-05-15T10:16:52.313Z,68.10
2019-05-15T10:19:22.425Z,69.70
2019-05-15T10:21:53.340Z,69.50
2019-05-15T10:24:23.713Z,69.60
2019-05-15T10:26:53.761Z,68.20
2019-05-15T10:29:23.792Z,68.90
2019-05-15T10:31:53.924Z,68.70
2019-05-15T10:34:23.947Z,70.90
2019-05-15T10:36:54.558Z,71.30
2019-05-15T10:39:24.613Z,69.40
2019-05-15T10:41:54.735Z,68.60
2019-05-15T10:44:25.325Z,68.90
2019-05-15T10:46:55.445Z,68.80
2019-05-15T10:49:25.479Z,70.70
2019-05-15T10:51:55.581Z,69.20
2019-05-15T10:54:28.625Z,68.80
2019-05-15T10:57:00.521Z,70.80
2019-05-15T10:59:29.902Z,70.80
2019-05-15T11:02:00.020Z,69.70
2019-05-15T11:04:30.181Z,66.30
2019-05-15T11:07:00.296Z,69.20
2019-05-15T11:09:30.341Z,70.10
2019-05-15T11:12:00.546Z,69.80
2019-05-15T11:14:30.557Z,68.70
2019-05-15T11:17:00.583Z,67.00
2019-05-15T11:19:36.107Z,68.50
2019-05-15T11:22:02.440Z,65.40
2019-05-15T11:24:38.356Z,69.50
2019-05-15T11:27:09.986Z,68.50
2019-05-15T11:29:38.829Z,70.70
2019-05-15T11:32:08.990Z,68.80
2019-05-15T11:34:39.120Z,67.30
2019-05-15T11:37:09.170Z,63.20
2019-05-15T11:39:45.737Z,65.10
2019-05-15T11:42:11.014Z,67.70
2019-05-15T11:44:41.051Z,69.50
2019-05-15T11:47:11.213Z,68.10
2019-05-15T11:49:41.315Z,69.10
2019-05-15T11:52:11.549Z,64.00
2019-05-15T11:54:42.679Z,65.10
2019-05-15T11:57:12.846Z,64.40
2019-05-15T11:59:45.402Z,66.90
2019-05-15T12:02:15.103Z,66.10
2019-05-15T12:04:45.209Z,67.20
2019-05-15T12:07:18.201Z,65.70
2019-05-15T12:09:48.188Z,61.30
2019-05-15T12:12:18.214Z,62.80
2019-05-15T12:14:49.415Z,64.90
2019-05-15T12:17:19.800Z,63.50
2019-05-15T12:20:01.598Z,63.90
2019-05-15T12:22:24.395Z,64.30
2019-05-15T12:24:54.762Z,63.10
2019-05-15T12:27:25.082Z,63.40
2019-05-15T12:29:55.149Z,60.40
2019-05-15T12:32:33.150Z,61.60
2019-05-15T12:35:00.014Z,63.60
2019-05-15T12:37:28.636Z,63.20
2019-05-15T13:00:14.992Z,60.80
2019-05-15T13:02:45.398Z,59.30
2019-05-15T13:05:15.427Z,59.40
2019-05-15T13:07:45.468Z,59.70
2019-05-15T13:10:18.208Z,59.00
2019-05-15T13:12:59.153Z,59.90
2019-05-15T13:15:19.593Z,58.90
2019-05-15T13:17:52.822Z,56.80
2019-05-15T13:20:21.382Z,58.40
2019-05-15T13:22:51.882Z,56.20
2019-05-15T13:25:23.422Z,57.30
2019-05-15T13:27:54.093Z,57.70
2019-05-15T13:30:25.475Z,58.80
2019-05-15T13:32:55.588Z,58.40
2019-05-15T13:35:28.327Z,58.50
2019-05-15T13:37:58.676Z,58.10
2019-05-15T13:40:37.120Z,58.50
2019-05-15T13:43:00.565Z,58.50
2019-05-15T13:45:30.649Z,59.20
2019-05-15T13:48:00.687Z,56.50
2019-05-15T13:50:30.886Z,57.60
2019-05-15T13:53:00.902Z,58.20
2019-05-15T13:55:36.324Z,57.00
2019-05-15T13:58:02.773Z,57.20
2019-05-15T14:00:32.947Z,57.60
2019-05-15T14:03:03.084Z,58.70
2019-05-15T14:05:33.286Z,59.60
2019-05-15T14:08:03.316Z,59.50
2019-05-15T14:10:33.347Z,59.40
2019-05-15T14:13:03.734Z,59.50
2019-05-15T14:15:33.902Z,59.40
2019-05-15T14:18:03.928Z,59.10
2019-05-15T14:20:33.957Z,59.00
2019-05-15T14:23:04.091Z,58.70
2019-05-15T14:25:34.527Z,59.10
2019-05-15T14:28:05.109Z,59.00
2019-05-15T14:30:35.220Z,58.60
2019-05-15T14:33:08.212Z,58.10
2019-05-15T14:35:38.007Z,57.20
2019-05-15T14:38:10.330Z,57.50
2019-05-15T14:40:39.918Z,56.50
2019-05-15T14:43:10.030Z,57.60
2019-05-15T14:45:40.074Z,57.60
2019-05-15T14:48:10.129Z,58.20
2019-05-15T14:50:40.362Z,58.20
2019-05-15T14:53:10.402Z,58.60
2019-05-15T14:55:44.034Z,57.40
2019-05-15T14:58:12.162Z,58.10
2019-05-15T15:00:43.533Z,58.50
2019-05-15T15:03:14.894Z,57.20
2019-05-15T15:05:45.006Z,58.00
2019-05-15T15:08:21.644Z,57.70
2019-05-15T15:10:46.760Z,57.70
2019-05-15T15:13:18.244Z,57.70
2019-05-15T15:15:48.731Z,56.70
2019-05-15T15:18:18.773Z,55.90
2019-05-15T15:20:48.798Z,56.20
2019-05-15T15:23:18.913Z,57.20
2019-05-15T15:25:48.947Z,58.00
2019-05-15T15:28:19.066Z,57.70
2019-05-15T15:30:49.415Z,56.50
2019-05-15T15:33:19.839Z,56.00
2019-05-15T15:35:49.938Z,56.70
2019-05-15T15:38:36.685Z,56.50
2019-05-15T15:40:51.637Z,56.30
2019-05-15T15:43:22.047Z,56.80
2019-05-15T15:45:52.082Z,56.40
2019-05-15T15:48:22.180Z,55.40
2019-05-15T15:50:52.295Z,55.20
2019-05-15T15:53:22.317Z,55.90
2019-05-15T15:55:52.373Z,55.10
2019-05-15T15:58:22.686Z,54.90
2019-05-15T16:00:52.882Z,55.30
2019-05-15T16:03:23.000Z,57.50
2019-05-15T16:05:53.034Z,56.30
2019-05-15T16:08:23.057Z,56.20
2019-05-15T16:10:53.177Z,56.80
2019-05-15T16:13:23.206Z,56.90
2019-05-15T16:15:53.269Z,55.50
2019-05-15T16:18:24.426Z,56.40
2019-05-15T16:20:54.474Z,56.00
2019-05-15T16:23:24.497Z,56.00
2019-05-15T16:25:54.536Z,55.80
2019-05-15T16:28:24.557Z,56.60
2019-05-15T16:30:54.599Z,55.40
2019-05-15T16:33:24.697Z,55.70
2019-05-15T16:35:54.735Z,56.10
2019-05-15T16:38:24.767Z,56.50
2019-05-15T16:40:55.179Z,55.20
2019-05-15T16:43:25.203Z,56.30
2019-05-15T16:45:55.235Z,56.90
2019-05-15T16:48:25.298Z,56.70
2019-05-15T16:50:55.325Z,57.10
2019-05-15T16:53:25.369Z,55.60
2019-05-15T16:55:55.871Z,56.10
2019-05-15T16:58:25.904Z,56.40
2019-05-15T17:00:58.559Z,55.40
2019-05-15T17:03:28.884Z,56.10
2019-05-15T17:05:59.205Z,55.40
2019-05-15T17:08:32.064Z,55.90
2019-05-15T17:11:00.973Z,56.30
2019-05-15T17:13:32.078Z,56.20
2019-05-15T17:16:02.116Z,56.60
2019-05-15T17:18:32.151Z,56.60
2019-05-15T17:21:02.200Z,57.00
2019-05-15T17:23:32.253Z,56.50
2019-05-15T17:26:02.288Z,56.50
2019-05-15T17:28:32.314Z,57.00
2019-05-15T17:31:02.362Z,56.90
2019-05-15T17:33:32.411Z,57.70
2019-05-15T17:36:02.864Z,58.30
2019-05-15T17:38:32.901Z,58.90
2019-05-15T17:41:03.092Z,58.90
2019-05-15T17:43:33.202Z,57.90
2019-05-15T17:46:03.379Z,58.60
2019-05-15T17:48:33.448Z,58.90
2019-05-15T17:51:03.479Z,58.90
2019-05-15T17:53:33.515Z,58.50
2019-05-15T17:56:03.973Z,59.90
2019-05-15T17:58:34.084Z,59.50
2019-05-15T18:01:04.190Z,59.80
2019-05-15T18:03:34.304Z,59.70
2019-05-15T18:06:04.472Z,59.50
2019-05-15T18:08:34.509Z,60.10
2019-05-15T18:11:04.959Z,59.90
2019-05-15T18:13:35.063Z,59.90
2019-05-15T18:16:05.303Z,60.00
2019-05-15T18:18:35.393Z,60.50
2019-05-15T18:21:05.418Z,60.10
2019-05-15T18:23:35.464Z,60.30
2019-05-15T18:26:06.007Z,60.50
2019-05-15T18:28:38.594Z,60.40
2019-05-15T18:31:08.956Z,60.20
2019-05-15T18:33:52.904Z,60.80
2019-05-15T18:36:11.088Z,60.30
2019-05-15T18:38:41.392Z,60.60
2019-05-15T18:41:11.439Z,61.20
2019-05-15T18:43:41.621Z,60.90
2019-05-15T18:46:11.722Z,61.70
2019-05-15T18:48:41.756Z,62.00
2019-05-15T18:51:11.853Z,62.10
2019-05-15T18:53:42.488Z,61.80
2019-05-15T18:56:13.466Z,61.90
2019-05-15T18:58:43.580Z,61.70
2019-05-15T19:01:14.019Z,62.40
2019-05-15T19:03:44.116Z,62.40
2019-05-15T19:06:14.144Z,62.30
2019-05-15T19:08:44.782Z,62.40
2019-05-15T19:11:14.800Z,62.30
2019-05-15T19:13:44.911Z,62.50
2019-05-15T19:16:14.946Z,62.80
2019-05-15T19:18:44.965Z,62.60
2019-05-15T19:21:15.013Z,63.40
2019-05-15T19:23:47.350Z,63.80
2019-05-15T19:26:18.202Z,64.00
2019-05-15T19:28:48.836Z,64.30
2019-05-15T19:31:26.640Z,64.80
2019-05-15T19:33:50.806Z,64.70
2019-05-15T19:36:20.836Z,64.60
2019-05-15T19:38:51.245Z,64.80
2019-05-15T19:41:21.351Z,65.00
2019-05-15T19:43:51.889Z,64.90
2019-05-15T19:46:22.342Z,64.50
2019-05-15T19:48:52.451Z,64.90
2019-05-15T19:51:22.847Z,65.10
2019-05-15T19:53:53.077Z,64.50
2019-05-15T19:56:23.129Z,65.50
2019-05-15T19:58:53.236Z,65.10
2019-05-15T20:01:23.276Z,65.20
2019-05-15T20:03:53.469Z,66.50
2019-05-15T20:06:23.712Z,65.10
2019-05-15T20:08:54.518Z,65.00
2019-05-15T20:11:24.627Z,63.40
2019-05-15T20:13:54.730Z,64.00
2019-05-15T20:16:24.908Z,64.30
2019-05-15T20:18:54.949Z,63.00
2019-05-15T20:21:24.979Z,63.90
2019-05-15T20:23:55.443Z,63.70
2019-05-15T20:26:25.614Z,63.60
2019-05-15T20:28:55.835Z,63.90
2019-05-15T20:31:28.284Z,64.30
2019-05-15T20:34:05.574Z,64.40
2019-05-15T20:36:31.114Z,66.40
2019-05-15T20:39:01.601Z,66.20
2019-05-15T20:41:33.253Z,66.20
2019-05-15T20:44:03.545Z,66.50
2019-05-15T20:46:33.742Z,66.10
2019-05-15T20:49:03.870Z,64.90
2019-05-15T20:51:35.864Z,65.80
2019-05-15T20:54:07.998Z,65.50
2019-05-15T20:56:38.456Z,66.30
2019-05-15T20:59:09.001Z,66.90
2019-05-15T21:01:39.258Z,67.60
2019-05-15T21:04:18.881Z,67.30
2019-05-15T21:06:41.029Z,67.50
2019-05-15T21:09:11.366Z,66.80
2019-05-15T21:11:41.479Z,68.00
2019-05-15T21:14:11.586Z,67.60
2019-05-15T21:16:41.742Z,67.90
2019-05-15T21:19:11.963Z,67.90
2019-05-15T21:21:42.080Z,68.40
2019-05-15T21:24:12.535Z,68.20
2019-05-15T21:26:42.625Z,68.30
2019-05-15T21:29:12.743Z,69.10
2019-05-15T21:31:42.867Z,70.10
2019-05-15T21:34:12.901Z,68.60
2019-05-15T21:36:44.010Z,69.30
2019-05-15T21:39:15.220Z,69.60
2019-05-15T21:41:45.439Z,69.80
2019-05-15T21:44:15.479Z,69.70
2019-05-15T21:46:48.099Z,70.30
2019-05-15T21:49:19.151Z,70.60
2019-05-15T21:51:49.049Z,70.90
2019-05-15T21:54:19.213Z,71.20
2019-05-15T21:56:50.533Z,70.80
2019-05-15T21:59:20.652Z,70.80
2019-05-15T22:01:50.833Z,71.00
2019-05-15T22:04:20.938Z,70.80
2019-05-15T22:06:51.050Z,70.90
2019-05-15T22:09:22.269Z,70.60
2019-05-15T22:11:52.437Z,70.80
2019-05-15T22:14:22.915Z,71.00
2019-05-15T22:16:53.025Z,70.60
2019-05-15T22:19:23.543Z,70.60
2019-05-15T22:21:53.568Z,70.60
2019-05-15T22:24:23.713Z,70.50
2019-05-15T22:26:54.011Z,70.60
2019-05-15T22:29:24.031Z,71.00
2019-05-15T22:31:54.469Z,71.00
2019-05-15T22:34:24.619Z,70.30
2019-05-15T22:36:54.921Z,70.90
2019-05-15T22:39:25.345Z,70.70
2019-05-15T22:41:55.509Z,71.00
2019-05-15T22:44:27.999Z,70.90
2019-05-15T22:46:58.114Z,70.90
2019-05-15T22:49:28.851Z,70.80
2019-05-15T22:51:59.084Z,70.80
2019-05-15T22:54:29.311Z,71.00
2019-05-15T22:56:59.631Z,71.20
2019-05-15T22:59:29.650Z,71.10
2019-05-15T23:01:59.871Z,71.40
2019-05-15T23:04:29.992Z,70.90
2019-05-15T23:07:00.110Z,71.10
2019-05-15T23:09:30.231Z,71.00
2019-05-15T23:12:00.247Z,70.90
2019-05-15T23:14:30.676Z,71.00
2019-05-15T23:17:00.793Z,71.10
2019-05-15T23:19:30.913Z,71.10
2019-05-15T23:22:01.136Z,71.00
2019-05-15T23:24:31.255Z,71.00
2019-05-15T23:27:01.486Z,70.80
2019-05-15T23:29:31.596Z,71.00
2019-05-15T23:32:01.720Z,70.90
2019-05-15T23:34:31.823Z,70.60
2019-05-15T23:37:01.955Z,69.90
2019-05-15T23:39:33.714Z,71.00
2019-05-15T23:42:04.244Z,70.90
2019-05-15T23:44:34.464Z,71.10
2019-05-15T23:47:04.587Z,70.80
2019-05-15T23:49:35.305Z,70.50
2019-05-15T23:52:05.437Z,70.60
2019-05-15T23:54:35.558Z,69.80
2019-05-15T23:57:05.779Z,70.80
2019-05-15T23:59:35.903Z,70.80
